Time;durP1;ratioP1;P1;durP2;ratioP2;P2;SDS_P1;SDS_P2;PMS_P1;PMS_P2;Temp;Humidity;BMP_temperature;BMP_pressure;BME280_temperature;BME280_humidity;BME280_pressure;Samples;Min_cycle;Max_cycle;Signal;HPM_P1;HPM_P2
2022/06/30 00:01:36;;;;;;;2.00;1.80;;;26.40;47.70;;;;;;5068638;28;45357;-92
2022/06/30 00:04:05;;;;;;;1.90;1.80;;;26.40;47.70;;;;;;5068280;28;45301;-88
2022/06/30 00:06:32;;;;;;;2.00;1.73;;;26.40;47.80;;;;;;5065617;28;45151;-89
2022/06/30 00:08:59;;;;;;;2.88;1.60;;;26.40;47.80;;;;;;5066535;28;45272;-89
2022/06/30 00:11:25;;;;;;;2.83;1.90;;;26.40;47.90;;;;;;5068616;28;45357;-88
2022/06/30 00:13:52;;;;;;;2.30;1.90;;;26.40;47.90;;;;;;5065803;28;46553;-89
2022/06/30 00:16:19;;;;;;;1.63;1.52;;;26.40;47.80;;;;;;5068389;28;45175;-89
2022/06/30 00:18:47;;;;;;;1.90;1.80;;;26.40;47.80;;;;;;5065166;28;45181;-89
2022/06/30 00:21:15;;;;;;;2.35;1.67;;;26.40;47.80;;;;;;5068272;28;44913;-88
2022/06/30 00:23:42;;;;;;;1.70;1.60;;;26.40;47.70;;;;;;5067608;28;48298;-88
2022/06/30 00:26:09;;;;;;;1.95;1.60;;;26.40;47.70;;;;;;5065095;28;45409;-88
2022/06/30 00:28:36;;;;;;;2.00;1.80;;;26.40;47.60;;;;;;5068279;28;45186;-89
2022/06/30 00:31:02;;;;;;;2.00;1.80;;;26.40;47.60;;;;;;5065145;28;45318;-88
2022/06/30 00:33:29;;;;;;;1.67;1.58;;;26.40;47.60;;;;;;5065317;28;46562;-87
2022/06/30 00:35:56;;;;;;;2.40;1.70;;;26.40;47.50;;;;;;5067824;28;45273;-88
2022/06/30 00:38:25;;;;;;;2.00;1.80;;;26.40;47.50;;;;;;5067766;28;45126;-88
2022/06/30 00:40:51;;;;;;;2.10;1.60;;;26.40;47.30;;;;;;5066916;28;45238;-88
2022/06/30 00:43:18;;;;;;;2.15;1.67;;;26.40;47.40;;;;;;5064305;28;45424;-87
2022/06/30 00:45:46;;;;;;;3.00;2.20;;;26.40;47.40;;;;;;5067388;28;45403;-88
2022/06/30 00:48:13;;;;;;;2.33;1.60;;;26.40;47.40;;;;;;5067560;28;45170;-87
2022/06/30 00:50:40;;;;;;;2.63;1.80;;;26.40;47.40;;;;;;5050547;28;45380;-87
2022/06/30 00:53:08;;;;;;;3.00;1.90;;;26.40;47.30;;;;;;5046819;28;47058;-88
2022/06/30 00:55:36;;;;;;;1.50;1.40;;;26.40;47.20;;;;;;5047092;28;45567;-88
2022/06/30 00:58:04;;;;;;;1.70;1.60;;;26.40;47.20;;;;;;5046962;28;45210;-86
2022/06/30 01:00:33;;;;;;;1.58;1.48;;;26.40;47.30;;;;;;5046953;28;45500;-87
2022/06/30 01:03:01;;;;;;;4.47;1.77;;;26.40;47.00;;;;;;5046395;28;45300;-87
2022/06/30 01:05:27;;;;;;;2.25;1.55;;;26.40;47.30;;;;;;5046555;28;45225;-87
2022/06/30 01:07:54;;;;;;;2.33;1.90;;;26.40;47.40;;;;;;5050357;28;45206;-87
2022/06/30 01:13:07;;;;;;;1.95;1.85;;;26.40;47.50;;;;;;5047493;28;45181;-87
2022/06/30 01:15:34;;;;;;;2.75;1.40;;;26.30;47.20;;;;;;5050415;28;45384;-88
2022/06/30 01:18:01;;;;;;;2.05;1.65;;;26.30;47.20;;;;;;5050363;28;45287;-89
2022/06/30 01:20:29;;;;;;;3.03;1.80;;;26.30;47.30;;;;;;5050710;28;45235;-87
2022/06/30 01:22:58;;;;;;;1.65;1.55;;;26.30;47.20;;;;;;5050450;28;45387;-88
2022/06/30 01:25:25;;;;;;;1.63;1.52;;;26.30;47.20;;;;;;5047150;28;45321;-87
2022/06/30 01:27:52;;;;;;;1.55;1.45;;;26.30;47.20;;;;;;5047646;28;45283;-88
2022/06/30 01:30:19;;;;;;;2.35;1.42;;;26.30;48.00;;;;;;5047664;28;45306;-89
2022/06/30 01:32:45;;;;;;;2.15;1.92;;;26.20;47.10;;;;;;5050146;28;45592;-88
2022/06/30 01:35:12;;;;;;;1.60;1.50;;;26.20;47.30;;;;;;5050321;28;44940;-88
2022/06/30 01:37:47;;;;;;;3.17;1.60;;;26.20;47.40;;;;;;5047477;28;45340;-88
2022/06/30 01:40:15;;;;;;;3.75;1.50;;;26.20;47.30;;;;;;5047521;28;45348;-87
2022/06/30 01:42:42;;;;;;;1.77;1.67;;;26.20;47.30;;;;;;5046599;28;46591;-88
2022/06/30 01:45:09;;;;;;;1.70;1.60;;;26.20;47.40;;;;;;5049590;28;45193;-87
2022/06/30 01:47:36;;;;;;;1.52;1.42;;;26.20;47.40;;;;;;5050009;28;45142;-87
2022/06/30 01:50:03;;;;;;;1.85;1.70;;;26.10;47.30;;;;;;5062094;28;45238;-88
2022/06/30 01:52:30;;;;;;;2.83;1.70;;;26.10;47.90;;;;;;5069819;28;46668;-87
2022/06/30 01:54:57;;;;;;;1.40;1.30;;;26.10;47.40;;;;;;5069852;28;45349;-88
2022/06/30 01:57:25;;;;;;;1.90;1.70;;;26.10;47.30;;;;;;5067239;28;45330;-87
2022/06/30 01:59:52;;;;;;;1.95;1.73;;;26.10;47.40;;;;;;5069756;28;45477;-88
2022/06/30 02:02:19;;;;;;;2.78;1.60;;;26.10;47.40;;;;;;5066938;28;45508;-88
2022/06/30 02:04:50;;;;;;;1.80;1.70;;;26.00;47.20;;;;;;5069668;28;45348;-86
2022/06/30 02:07:17;;;;;;;4.55;1.75;;;26.00;47.30;;;;;;5069797;28;45166;-87
2022/06/30 02:09:44;;;;;;;2.33;1.70;;;26.00;47.30;;;;;;5059954;28;45408;-87
2022/06/30 02:14:57;;;;;;;1.67;1.58;;;26.00;47.40;;;;;;5046775;28;45282;-87
2022/06/30 02:17:24;;;;;;;1.60;1.50;;;26.00;47.40;;;;;;5049105;28;45302;-87
2022/06/30 02:19:50;;;;;;;1.60;1.50;;;26.00;47.30;;;;;;5046999;28;45294;-87
2022/06/30 02:22:17;;;;;;;2.65;1.60;;;25.90;47.30;;;;;;5048816;28;45570;-87
2022/06/30 02:24:44;;;;;;;1.55;1.45;;;25.90;47.40;;;;;;5046357;28;45361;-87
2022/06/30 02:27:11;;;;;;;1.70;1.60;;;25.90;47.30;;;;;;5049037;28;44708;-87
2022/06/30 02:29:38;;;;;;;1.70;1.60;;;25.90;47.40;;;;;;5049231;28;45452;-87
2022/06/30 02:32:08;;;;;;;1.80;1.70;;;25.90;48.10;;;;;;5048865;28;45454;-88
2022/06/30 02:34:34;;;;;;;1.83;1.60;;;25.90;47.50;;;;;;5048832;28;45437;-87
2022/06/30 02:37:01;;;;;;;1.85;1.65;;;25.80;47.40;;;;;;5049215;28;45237;-87
2022/06/30 02:39:28;;;;;;;1.80;1.70;;;25.80;47.30;;;;;;5048756;28;45305;-87
2022/06/30 02:41:55;;;;;;;1.70;1.60;;;25.80;47.40;;;;;;5049075;28;45147;-86
2022/06/30 02:44:22;;;;;;;1.63;1.55;;;25.80;47.50;;;;;;5049158;28;45214;-87
2022/06/30 02:46:50;;;;;;;1.92;1.60;;;25.80;47.50;;;;;;5046567;28;45364;-88
2022/06/30 02:49:19;;;;;;;1.58;1.48;;;25.70;47.60;;;;;;5049578;28;45532;-87
2022/06/30 02:51:45;;;;;;;1.50;1.40;;;25.70;47.40;;;;;;5085522;28;45610;-87
2022/06/30 02:54:12;;;;;;;1.90;1.80;;;25.70;47.50;;;;;;5071564;28;45177;-87
2022/06/30 02:56:39;;;;;;;1.88;1.63;;;25.70;47.50;;;;;;5070156;28;44656;-87
2022/06/30 02:59:06;;;;;;;1.75;1.65;;;25.70;47.40;;;;;;5066628;28;45324;-88
2022/06/30 03:01:33;;;;;;;2.03;1.80;;;25.70;47.50;;;;;;5068672;28;45462;-87
2022/06/30 03:04:01;;;;;;;1.50;1.40;;;25.70;47.50;;;;;;5066136;28;45185;-87
2022/06/30 03:06:29;;;;;;;1.60;1.50;;;25.60;47.60;;;;;;5068656;28;45257;-88
2022/06/30 03:08:56;;;;;;;1.73;1.42;;;25.60;47.60;;;;;;5069319;28;45236;-87
2022/06/30 03:11:23;;;;;;;1.48;1.38;;;25.60;47.50;;;;;;5068536;28;45282;-88
2022/06/30 03:13:50;;;;;;;1.58;1.48;;;25.60;47.50;;;;;;5069480;28;45193;-87
2022/06/30 03:16:17;;;;;;;1.70;1.60;;;25.60;47.60;;;;;;5066314;28;45192;-88
2022/06/30 03:18:44;;;;;;;1.60;1.50;;;25.60;47.70;;;;;;5071436;28;45185;-89
2022/06/30 03:21:11;;;;;;;2.15;1.77;;;25.50;47.70;;;;;;5070146;28;45666;-87
2022/06/30 03:23:39;;;;;;;1.98;1.77;;;25.50;47.60;;;;;;5066906;28;45371;-87
2022/06/30 03:26:06;;;;;;;1.52;1.42;;;25.50;47.60;;;;;;5069711;28;45194;-87
2022/06/30 03:28:33;;;;;;;1.50;1.40;;;25.50;47.70;;;;;;5064806;28;45335;-87
2022/06/30 03:31:00;;;;;;;1.70;1.60;;;25.50;47.70;;;;;;5067826;28;45474;-88
2022/06/30 03:33:27;;;;;;;1.88;1.58;;;25.50;47.80;;;;;;5066161;28;44661;-88
2022/06/30 03:35:54;;;;;;;2.20;1.58;;;25.50;47.80;;;;;;5069473;28;45347;-88
2022/06/30 03:38:21;;;;;;;1.70;1.60;;;25.50;47.80;;;;;;5066207;28;44839;-88
2022/06/30 03:40:49;;;;;;;1.88;1.60;;;25.40;47.80;;;;;;5068140;28;47579;-87
2022/06/30 03:43:17;;;;;;;4.35;1.67;;;25.40;47.80;;;;;;5065692;28;45288;-88
2022/06/30 03:45:44;;;;;;;2.15;1.67;;;25.40;47.70;;;;;;5068377;28;45319;-87
2022/06/30 03:48:11;;;;;;;1.60;1.50;;;25.40;47.80;;;;;;5065962;28;45166;-88
2022/06/30 03:50:38;;;;;;;2.60;1.70;;;25.40;47.80;;;;;;5068361;28;45604;-89
2022/06/30 03:53:05;;;;;;;2.45;1.60;;;25.40;47.90;;;;;;5065641;28;45290;-88
2022/06/30 03:55:33;;;;;;;3.45;1.65;;;25.40;47.90;;;;;;5065569;28;45209;-87
2022/06/30 03:58:01;;;;;;;2.33;1.67;;;25.40;48.00;;;;;;5068496;28;45213;-88
2022/06/30 04:00:28;;;;;;;1.35;1.25;;;25.30;48.00;;;;;;5068931;28;45224;-88
2022/06/30 04:02:55;;;;;;;1.60;1.50;;;25.30;48.00;;;;;;5068438;28;45340;-87
2022/06/30 04:05:22;;;;;;;1.70;1.60;;;25.30;47.90;;;;;;5068016;28;45229;-88
2022/06/30 04:07:49;;;;;;;2.00;1.80;;;25.30;48.10;;;;;;5065809;28;45302;-87
2022/06/30 04:10:17;;;;;;;2.05;1.75;;;25.30;48.00;;;;;;5053658;28;45464;-88
2022/06/30 04:12:44;;;;;;;1.85;1.48;;;25.30;48.00;;;;;;5047523;28;45180;-88
2022/06/30 04:15:18;;;;;;;3.15;1.67;;;25.30;48.10;;;;;;5048090;28;45411;-88
2022/06/30 04:17:45;;;;;;;1.73;1.50;;;25.30;48.10;;;;;;5047763;28;45243;-88
2022/06/30 04:20:16;;;;;;;1.60;1.50;;;25.30;48.00;;;;;;5047337;28;45281;-87
2022/06/30 04:22:44;;;;;;;1.50;1.40;;;25.30;48.10;;;;;;5048903;28;45144;-88
2022/06/30 04:25:11;;;;;;;3.85;1.77;;;25.30;48.10;;;;;;5048566;28;45238;-88
2022/06/30 04:27:42;;;;;;;1.88;1.63;;;25.20;48.10;;;;;;5045389;28;45289;-88
2022/06/30 04:30:10;;;;;;;2.22;1.90;;;25.20;48.20;;;;;;5044942;28;46829;-89
2022/06/30 04:32:37;;;;;;;1.70;1.60;;;25.20;48.10;;;;;;5047712;28;45303;-89
2022/06/30 04:35:06;;;;;;;1.60;1.50;;;25.20;48.20;;;;;;5044799;28;45238;-88
2022/06/30 04:37:33;;;;;;;1.50;1.40;;;25.20;48.20;;;;;;5048178;28;45119;-89
2022/06/30 04:42:44;;;;;;;1.80;1.58;;;25.20;48.20;;;;;;5047921;28;45225;-93
2022/06/30 04:45:11;;;;;;;1.65;1.55;;;25.20;48.30;;;;;;5051630;28;45249;-92
2022/06/30 04:47:39;;;;;;;3.38;1.75;;;25.10;48.30;;;;;;5052385;28;45358;-94
2022/06/30 04:50:07;;;;;;;2.65;1.70;;;25.10;48.40;;;;;;5060537;28;45395;-93
2022/06/30 04:52:34;;;;;;;1.80;1.70;;;25.10;48.30;;;;;;5094264;28;45170;-93
2022/06/30 04:55:01;;;;;;;1.55;1.45;;;25.10;48.20;;;;;;5092622;28;45281;-92
2022/06/30 04:57:28;;;;;;;2.50;1.60;;;25.10;48.40;;;;;;5092416;28;45523;-92
2022/06/30 04:59:55;;;;;;;1.58;1.48;;;25.10;48.70;;;;;;5092194;28;45516;-93
2022/06/30 05:02:22;;;;;;;3.33;1.60;;;25.10;49.30;;;;;;5092317;28;45185;-94
2022/06/30 05:04:50;;;;;;;1.60;1.50;;;25.10;48.70;;;;;;5089797;28;45285;-93
2022/06/30 05:07:17;;;;;;;1.70;1.58;;;25.10;48.50;;;;;;5096214;28;45445;-94
2022/06/30 05:09:45;;;;;;;1.92;1.83;;;25.10;48.60;;;;;;5089285;28;45379;-92
2022/06/30 05:12:12;;;;;;;2.33;1.70;;;25.10;48.60;;;;;;5074650;28;45154;-92
2022/06/30 05:14:39;;;;;;;1.65;1.55;;;25.20;48.60;;;;;;5092905;28;44647;-93
2022/06/30 05:17:06;;;;;;;1.52;1.42;;;25.10;48.80;;;;;;5092619;28;45229;-92
2022/06/30 05:19:33;;;;;;;2.03;1.70;;;25.10;48.40;;;;;;5091489;28;45365;-93
2022/06/30 05:22:02;;;;;;;2.83;1.80;;;25.10;49.10;;;;;;5093197;28;45272;-93
2022/06/30 05:27:13;;;;;;;1.70;1.60;;;25.10;48.50;;;;;;5089573;28;44646;-91
2022/06/30 05:29:40;;;;;;;1.70;1.60;;;25.10;48.60;;;;;;5092540;28;45634;-91
2022/06/30 05:32:08;;;;;;;2.30;1.85;;;25.10;48.50;;;;;;5092225;28;45344;-92
2022/06/30 05:34:35;;;;;;;2.20;1.83;;;25.10;48.40;;;;;;5092973;28;45209;-92
2022/06/30 05:37:03;;;;;;;3.28;1.80;;;25.10;48.50;;;;;;5093758;28;45172;-93
2022/06/30 05:39:31;;;;;;;1.77;1.67;;;25.10;48.10;;;;;;5089652;28;45653;-93
2022/06/30 05:41:58;;;;;;;2.45;1.88;;;25.10;48.40;;;;;;5092297;28;45304;-92
2022/06/30 05:44:25;;;;;;;2.35;1.95;;;25.10;48.40;;;;;;5089211;28;45381;-92
2022/06/30 05:46:52;;;;;;;2.67;1.95;;;25.10;48.50;;;;;;5089479;28;45166;-94
2022/06/30 05:49:18;;;;;;;1.60;1.50;;;25.10;48.50;;;;;;5091348;28;45254;-93
2022/06/30 05:51:45;;;;;;;1.73;1.63;;;25.10;48.30;;;;;;5091682;27;45245;-91
2022/06/30 05:54:14;;;;;;;1.95;1.58;;;25.10;48.50;;;;;;5091570;28;45339;-90
2022/06/30 05:56:41;;;;;;;2.10;1.90;;;25.20;48.60;;;;;;5091629;28;45411;-91
2022/06/30 05:59:08;;;;;;;3.10;1.80;;;25.20;48.50;;;;;;5088828;28;46842;-91
2022/06/30 06:01:34;;;;;;;1.90;1.80;;;25.20;48.50;;;;;;5089024;28;45185;-91
2022/06/30 06:04:01;;;;;;;3.00;1.83;;;25.20;48.50;;;;;;5091601;28;45401;-93
2022/06/30 06:06:28;;;;;;;3.40;1.92;;;25.20;48.50;;;;;;5088566;28;44720;-92
2022/06/30 06:08:55;;;;;;;2.03;1.65;;;25.20;48.60;;;;;;5085233;28;46579;-91
2022/06/30 06:11:23;;;;;;;4.85;2.00;;;25.20;48.40;;;;;;5070800;28;45193;-91
2022/06/30 06:13:50;;;;;;;1.92;1.83;;;25.20;48.50;;;;;;5070800;28;45182;-90
2022/06/30 06:16:22;;;;;;;2.10;2.00;;;25.20;48.50;;;;;;5070280;28;45338;-91
2022/06/30 06:18:49;;;;;;;1.83;1.73;;;25.20;48.40;;;;;;5069578;28;45702;-91
2022/06/30 06:21:16;;;;;;;1.92;1.70;;;25.30;48.60;;;;;;5070884;28;45207;-91
2022/06/30 06:23:43;;;;;;;2.20;2.00;;;25.30;48.40;;;;;;5067944;28;45426;-91
2022/06/30 06:26:10;;;;;;;2.15;2.00;;;25.30;48.30;;;;;;5071050;28;45256;-91
2022/06/30 06:31:23;;;;;;;2.47;2.28;;;25.30;50.20;;;;;;5067951;28;45205;-90
2022/06/30 06:33:50;;;;;;;3.80;2.15;;;25.30;50.30;;;;;;5070274;28;45286;-89
2022/06/30 06:36:17;;;;;;;2.72;2.53;;;25.30;50.60;;;;;;5070948;28;45190;-91
2022/06/30 06:38:43;;;;;;;3.42;2.60;;;25.20;50.70;;;;;;5070848;28;45455;-91
2022/06/30 06:41:11;;;;;;;5.93;2.35;;;25.20;50.90;;;;;;5071006;28;44715;-91
2022/06/30 06:43:39;;;;;;;6.00;2.58;;;25.20;51.00;;;;;;5070875;28;45193;-93
2022/06/30 06:46:06;;;;;;;2.28;2.08;;;25.20;51.00;;;;;;5067183;28;45225;-93
2022/06/30 06:48:33;;;;;;;3.83;2.42;;;25.20;51.20;;;;;;5069951;28;45743;-90
2022/06/30 06:51:00;;;;;;;2.38;2.00;;;25.20;51.60;;;;;;5069716;28;45428;-93
2022/06/30 06:53:27;;;;;;;4.40;2.00;;;25.20;51.60;;;;;;5061309;28;44652;-93
2022/06/30 06:55:54;;;;;;;2.92;2.30;;;25.20;51.90;;;;;;5050065;28;44803;-93
2022/06/30 06:58:20;;;;;;;2.33;1.90;;;25.20;52.00;;;;;;5049198;28;45425;-93
2022/06/30 07:00:49;;;;;;;2.38;2.17;;;25.20;51.90;;;;;;5049853;28;45428;-94
2022/06/30 07:03:16;;;;;;;2.30;2.10;;;25.20;52.00;;;;;;5048603;28;45314;-94
2022/06/30 07:05:43;;;;;;;2.65;2.45;;;25.20;52.10;;;;;;5050765;28;45199;-92
2022/06/30 07:08:10;;;;;;;2.25;1.98;;;25.20;52.00;;;;;;5046402;28;45465;-92
2022/06/30 07:10:37;;;;;;;3.60;2.10;;;25.30;51.70;;;;;;5066119;28;45190;-92
2022/06/30 07:13:03;;;;;;;2.22;2.10;;;25.30;51.70;;;;;;5066457;28;44785;-91
2022/06/30 07:15:30;;;;;;;3.70;2.30;;;25.30;51.80;;;;;;5069581;28;45349;-94
2022/06/30 07:17:59;;;;;;;2.30;2.00;;;25.30;51.90;;;;;;5069553;28;47023;-95
2022/06/30 07:20:26;;;;;;;2.17;2.08;;;25.30;52.00;;;;;;5069664;28;45238;-93
2022/06/30 07:22:54;;;;;;;3.78;2.30;;;25.30;51.90;;;;;;5066904;28;45302;-95
2022/06/30 07:25:21;;;;;;;3.22;2.22;;;25.30;51.90;;;;;;5070449;28;45546;-93
2022/06/30 07:27:48;;;;;;;4.05;2.35;;;25.30;52.00;;;;;;5067866;28;45651;-92
2022/06/30 07:30:15;;;;;;;2.17;2.05;;;25.30;51.90;;;;;;5068639;28;45182;-92
2022/06/30 07:32:42;;;;;;;2.30;2.20;;;25.40;52.10;;;;;;5071871;28;45233;-93
2022/06/30 07:35:11;;;;;;;5.13;2.33;;;25.40;52.10;;;;;;5081378;28;44861;-94
2022/06/30 07:37:39;;;;;;;2.67;2.47;;;25.40;52.00;;;;;;5091657;27;46699;-94
2022/06/30 07:40:06;;;;;;;3.47;2.20;;;25.40;51.70;;;;;;5091778;27;45254;-94
2022/06/30 07:42:33;;;;;;;3.53;2.47;;;25.50;51.80;;;;;;5092081;27;44695;-91
2022/06/30 07:45:01;;;;;;;2.53;2.13;;;25.50;51.70;;;;;;5089785;27;44763;-94
2022/06/30 07:47:28;;;;;;;2.33;2.10;;;25.50;51.40;;;;;;5053291;22;45370;-69
2022/06/30 07:49:55;;;;;;;2.90;2.47;;;25.60;51.30;;;;;;5026052;28;45222;-69
2022/06/30 07:52:23;;;;;;;2.78;2.20;;;25.60;51.10;;;;;;5025902;28;45282;-70
2022/06/30 07:54:51;;;;;;;2.50;2.30;;;25.60;51.50;;;;;;5045917;28;45281;-69
2022/06/30 07:57:18;;;;;;;2.88;2.33;;;25.60;51.50;;;;;;5045859;28;47450;-68
2022/06/30 07:59:44;;;;;;;3.70;2.40;;;25.60;51.70;;;;;;5045776;28;45171;-69
2022/06/30 08:02:12;;;;;;;2.50;2.30;;;25.70;51.70;;;;;;5046405;28;45206;-68
2022/06/30 08:04:40;;;;;;;4.95;2.40;;;25.70;51.80;;;;;;5046424;28;45313;-68
2022/06/30 08:07:06;;;;;;;3.65;2.60;;;25.80;51.90;;;;;;5045716;28;46917;-69
2022/06/30 08:09:35;;;;;;;3.50;2.60;;;25.80;51.90;;;;;;5037708;28;45281;-69
2022/06/30 08:12:01;;;;;;;3.45;2.45;;;25.80;51.70;;;;;;5025863;28;45276;-69
2022/06/30 08:14:28;;;;;;;2.80;2.40;;;25.80;51.80;;;;;;5025656;28;45226;-68
2022/06/30 08:16:55;;;;;;;5.22;2.42;;;25.80;51.80;;;;;;5025517;28;45492;-69
2022/06/30 08:19:22;;;;;;;4.80;2.55;;;25.90;51.90;;;;;;5025628;28;45237;-69
2022/06/30 08:21:49;;;;;;;2.83;2.60;;;25.90;52.00;;;;;;5025734;28;45223;-69
2022/06/30 08:24:16;;;;;;;5.18;2.60;;;26.00;52.00;;;;;;5025942;28;45182;-69
2022/06/30 08:26:44;;;;;;;3.42;2.30;;;26.00;52.10;;;;;;5025429;28;45371;-69
2022/06/30 08:29:12;;;;;;;3.72;2.70;;;26.00;52.00;;;;;;5025441;28;45472;-69
2022/06/30 08:31:39;;;;;;;4.95;3.10;;;26.10;52.00;;;;;;5025662;28;45190;-69
2022/06/30 08:34:06;;;;;;;2.92;2.60;;;26.10;52.00;;;;;;5024310;28;45269;-69
2022/06/30 08:36:33;;;;;;;4.32;2.90;;;26.10;51.50;;;;;;5024594;28;45332;-69
2022/06/30 08:38:59;;;;;;;5.05;2.63;;;26.10;51.60;;;;;;5025294;28;45214;-69
2022/06/30 08:44:12;;;;;;;4.72;2.83;;;26.20;51.70;;;;;;5022798;28;45265;-69
2022/06/30 08:46:39;;;;;;;4.63;2.60;;;26.20;51.60;;;;;;5030508;28;45222;-69
2022/06/30 08:49:06;;;;;;;4.43;2.40;;;26.30;51.50;;;;;;5044943;28;45218;-69
2022/06/30 08:51:35;;;;;;;2.95;2.67;;;26.20;51.70;;;;;;5045324;28;45323;-69
2022/06/30 08:54:02;;;;;;;4.32;2.30;;;26.30;51.80;;;;;;5032145;28;45386;-68
2022/06/30 08:56:30;;;;;;;3.55;2.45;;;26.30;52.00;;;;;;5024751;28;45152;-69
2022/06/30 08:58:57;;;;;;;2.50;2.20;;;26.40;51.90;;;;;;5024950;28;45215;-69
2022/06/30 09:01:26;;;;;;;5.25;2.47;;;26.40;51.90;;;;;;5024956;28;45322;-69
2022/06/30 09:03:53;;;;;;;4.38;2.70;;;26.40;51.80;;;;;;5025173;28;45223;-69
2022/06/30 09:06:19;;;;;;;3.28;2.30;;;26.40;51.70;;;;;;5024480;28;47031;-69
2022/06/30 09:08:46;;;;;;;2.47;2.28;;;26.50;51.70;;;;;;5026330;28;45387;-69
2022/06/30 09:11:13;;;;;;;4.63;2.65;;;26.50;51.60;;;;;;5045113;28;45322;-69
2022/06/30 09:13:41;;;;;;;2.38;2.13;;;26.60;51.80;;;;;;5044996;28;45351;-69
2022/06/30 09:16:08;;;;;;;4.38;2.35;;;26.60;51.60;;;;;;5042315;28;46151;-68
2022/06/30 09:18:36;;;;;;;3.72;2.63;;;26.70;51.90;;;;;;5044853;28;45189;-70
2022/06/30 09:21:08;;;;;;;3.03;2.38;;;26.70;52.00;;;;;;5045060;28;45207;-69
2022/06/30 09:23:36;;;;;;;2.35;2.15;;;26.70;52.20;;;;;;5044947;28;45431;-69
2022/06/30 09:26:03;;;;;;;2.60;2.40;;;26.80;52.20;;;;;;5044543;28;45272;-69
2022/06/30 09:28:40;;;;;;;2.63;2.42;;;26.80;51.70;;;;;;5047287;28;45320;-69
2022/06/30 09:31:07;;;;;;;3.30;2.70;;;26.80;51.60;;;;;;5043748;28;45477;-69
2022/06/30 09:33:36;;;;;;;3.25;2.53;;;26.80;51.40;;;;;;5035181;28;45270;-69
2022/06/30 09:36:23;;;;;;;4.30;2.75;;;26.90;51.50;;;;;;5039185;28;45489;-70
2022/06/30 09:39:00;;;;;;;3.80;2.47;;;27.00;51.60;;;;;;5051503;28;45363;-70
2022/06/30 09:41:28;;;;;;;4.10;2.20;;;27.10;51.70;;;;;;5038327;28;45304;-70
2022/06/30 09:43:56;;;;;;;3.63;2.85;;;27.10;51.50;;;;;;5047573;28;45246;-69
2022/06/30 09:46:22;;;;;;;3.85;2.40;;;27.10;51.20;;;;;;5044008;28;46408;-69
2022/06/30 09:48:51;;;;;;;3.70;2.22;;;27.20;51.10;;;;;;5045826;28;45206;-69
2022/06/30 09:51:19;;;;;;;3.92;2.33;;;27.20;50.80;;;;;;5042334;28;45361;-69
2022/06/30 09:54:06;;;;;;;4.80;2.70;;;27.30;50.70;;;;;;5036801;28;45389;-70
2022/06/30 09:56:33;;;;;;;2.58;2.33;;;27.30;50.30;;;;;;5057267;28;48480;-69
2022/06/30 09:59:00;;;;;;;3.33;2.47;;;27.30;49.90;;;;;;5046237;28;45289;-69
2022/06/30 10:01:27;;;;;;;2.92;2.45;;;27.30;49.60;;;;;;5041616;28;45498;-70
2022/06/30 10:03:59;;;;;;;4.88;2.90;;;27.40;49.80;;;;;;5035212;28;45264;-70
2022/06/30 10:06:27;;;;;;;4.15;2.85;;;27.40;49.80;;;;;;5043472;28;46388;-69
2022/06/30 10:08:54;;;;;;;5.45;2.53;;;27.50;49.80;;;;;;5041899;28;45288;-70
2022/06/30 10:11:21;;;;;;;2.60;2.13;;;27.50;49.60;;;;;;5038564;28;45318;-69
2022/06/30 10:13:48;;;;;;;3.33;2.58;;;27.50;48.90;;;;;;5047328;28;45264;-69
2022/06/30 10:16:16;;;;;;;5.65;2.33;;;27.60;48.90;;;;;;5040183;28;45491;-70
2022/06/30 10:18:43;;;;;;;3.58;2.40;;;27.60;49.00;;;;;;5047168;28;45344;-71
2022/06/30 10:21:11;;;;;;;2.95;2.17;;;27.70;49.20;;;;;;5041445;28;45143;-70
2022/06/30 10:23:38;;;;;;;2.55;2.33;;;27.80;49.30;;;;;;5040593;28;45467;-70
2022/06/30 10:26:06;;;;;;;2.72;2.30;;;27.80;49.10;;;;;;5046439;28;45368;-70
2022/06/30 10:28:33;;;;;;;3.22;2.00;;;27.90;49.30;;;;;;5042315;28;45247;-70
2022/06/30 10:31:02;;;;;;;3.38;2.22;;;27.90;48.80;;;;;;5047559;28;45358;-70
2022/06/30 10:33:34;;;;;;;2.53;2.17;;;28.00;49.10;;;;;;5035498;28;45408;-70
2022/06/30 10:36:04;;;;;;;4.18;2.42;;;28.00;48.50;;;;;;5034887;28;46791;-70
2022/06/30 10:38:35;;;;;;;3.25;2.35;;;28.10;47.70;;;;;;5046998;28;45289;-71
2022/06/30 10:41:07;;;;;;;3.10;2.00;;;28.10;47.90;;;;;;5041856;28;45393;-69
2022/06/30 10:43:34;;;;;;;2.58;2.35;;;28.20;47.80;;;;;;5045850;28;45412;-70
2022/06/30 10:46:02;;;;;;;4.60;2.20;;;28.20;47.90;;;;;;5044885;28;46529;-71
2022/06/30 10:48:29;;;;;;;3.60;2.30;;;28.20;46.90;;;;;;5040389;28;45183;-71
2022/06/30 10:50:56;;;;;;;3.33;2.13;;;28.30;46.60;;;;;;5045928;28;45167;-69
2022/06/30 10:53:52;;;;;;;2.20;2.05;;;28.30;46.60;;;;;;5039439;28;45364;-69
2022/06/30 10:56:20;;;;;;;4.68;2.20;;;28.40;46.30;;;;;;5046710;28;45474;-69
2022/06/30 10:59:06;;;;;;;3.50;2.08;;;28.40;46.80;;;;;;5045100;28;45253;-68
2022/06/30 11:01:33;;;;;;;3.10;2.00;;;28.50;46.60;;;;;;5037283;28;45481;-71
2022/06/30 11:04:01;;;;;;;5.28;2.10;;;28.50;46.10;;;;;;5038634;28;45531;-69
2022/06/30 11:06:56;;;;;;;3.95;1.98;;;28.60;46.20;;;;;;5042086;28;45535;-71
2022/06/30 11:10:05;;;;;;;4.00;2.20;;;28.60;46.20;;;;;;5038705;28;45573;-68
2022/06/30 11:12:55;;;;;;;2.83;2.10;;;28.70;46.90;;;;;;5041436;28;45527;-69
2022/06/30 11:15:23;;;;;;;3.92;2.10;;;28.70;47.00;;;;;;5046950;28;45493;-69
2022/06/30 11:17:51;;;;;;;3.63;2.10;;;28.70;47.00;;;;;;5041232;28;46348;-69
2022/06/30 11:20:18;;;;;;;3.80;2.05;;;28.90;46.90;;;;;;5046312;28;45217;-68
2022/06/30 11:22:45;;;;;;;3.60;2.10;;;28.90;46.30;;;;;;5046528;28;45296;-70
2022/06/30 11:27:17;;;;;;;2.90;2.13;;;29.00;46.00;;;;;;5045199;28;45309;-70
2022/06/30 11:28:00;;;;;;;3.25;2.28;;;29.00;46.00;;;;;;5036058;28;46009;-68
2022/06/30 11:30:29;;;;;;;3.03;2.13;;;29.10;45.50;;;;;;5047173;28;45501;-69
2022/06/30 11:32:56;;;;;;;2.20;1.80;;;29.20;45.10;;;;;;5043809;28;45276;-70
2022/06/30 11:35:26;;;;;;;2.70;1.80;;;29.30;44.20;;;;;;5048837;28;45429;-71
2022/06/30 11:37:53;;;;;;;6.95;2.42;;;29.40;43.20;;;;;;5049635;28;45298;-69
2022/06/30 11:40:20;;;;;;;7.53;4.88;;;29.40;43.50;;;;;;5054438;28;45229;-70
2022/06/30 11:42:49;;;;;;;5.82;4.20;;;29.50;43.30;;;;;;5046911;28;45502;-69
2022/06/30 11:45:20;;;;;;;6.70;2.90;;;29.60;43.10;;;;;;5050712;28;45321;-69
2022/06/30 11:47:53;;;;;;;4.25;2.72;;;29.60;43.20;;;;;;5043850;28;45578;-71
2022/06/30 11:50:20;;;;;;;2.55;2.30;;;29.70;42.90;;;;;;5035208;28;45416;-70
2022/06/30 11:52:47;;;;;;;3.85;2.10;;;29.80;42.90;;;;;;5038301;28;45290;-70
2022/06/30 11:55:14;;;;;;;2.03;1.92;;;29.90;43.10;;;;;;5046469;28;45406;-70
2022/06/30 11:57:42;;;;;;;2.08;1.88;;;29.90;42.40;;;;;;5042078;28;45495;-70
2022/06/30 12:00:10;;;;;;;3.28;2.08;;;30.00;41.90;;;;;;5046117;28;45252;-70
2022/06/30 12:02:39;;;;;;;4.63;1.75;;;30.00;41.90;;;;;;5046164;28;45308;-71
2022/06/30 12:05:07;;;;;;;3.33;2.30;;;30.10;41.90;;;;;;5038939;28;45381;-71
2022/06/30 12:07:34;;;;;;;3.03;1.67;;;30.20;41.70;;;;;;5046173;28;45446;-71
2022/06/30 12:10:01;;;;;;;2.15;1.98;;;30.30;42.10;;;;;;5050522;28;45467;-70
2022/06/30 12:12:29;;;;;;;5.68;2.22;;;30.30;41.90;;;;;;5046933;28;45518;-70
2022/06/30 12:14:57;;;;;;;4.70;4.20;;;30.50;42.00;;;;;;5064104;28;45419;-70
2022/06/30 12:17:24;;;;;;;4.15;3.08;;;30.50;41.70;;;;;;5065659;28;45213;-70
2022/06/30 12:19:52;;;;;;;4.57;2.58;;;30.60;41.00;;;;;;5062564;28;45326;-70
2022/06/30 12:22:19;;;;;;;2.47;2.28;;;30.60;40.60;;;;;;5045839;28;45417;-70
2022/06/30 12:24:47;;;;;;;3.15;1.80;;;30.70;40.90;;;;;;5042958;28;45176;-71
2022/06/30 12:27:25;;;;;;;2.10;1.73;;;30.80;40.80;;;;;;5025634;28;46422;-71
2022/06/30 12:29:56;;;;;;;2.58;1.90;;;30.80;40.30;;;;;;5025740;28;45433;-70
2022/06/30 12:32:23;;;;;;;3.70;2.10;;;30.90;40.90;;;;;;5025752;28;45190;-71
2022/06/30 12:34:52;;;;;;;1.75;1.65;;;31.00;41.20;;;;;;5026002;28;45297;-70
2022/06/30 12:37:26;;;;;;;4.20;1.88;;;31.10;40.60;;;;;;5025700;28;45467;-71
2022/06/30 12:39:53;;;;;;;2.90;1.90;;;31.10;40.80;;;;;;5025636;28;45282;-72
2022/06/30 12:42:19;;;;;;;3.70;2.10;;;31.20;41.00;;;;;;5025598;28;45260;-70
2022/06/30 12:44:46;;;;;;;3.25;2.00;;;31.30;40.20;;;;;;5046709;28;45416;-71
2022/06/30 12:47:14;;;;;;;3.72;2.30;;;31.30;40.50;;;;;;5046757;28;46946;-71
2022/06/30 12:49:40;;;;;;;1.60;1.50;;;31.30;40.10;;;;;;5045485;28;45355;-71
2022/06/30 12:52:16;;;;;;;1.80;1.70;;;31.40;40.10;;;;;;5045808;28;45358;-72
2022/06/30 12:54:50;;;;;;;2.25;2.05;;;31.40;39.60;;;;;;5046182;28;45334;-72
2022/06/30 12:57:17;;;;;;;2.20;2.03;;;31.50;39.20;;;;;;5045557;28;46390;-72
2022/06/30 12:59:48;;;;;;;2.10;1.90;;;31.50;39.20;;;;;;5045643;28;45328;-71
2022/06/30 13:02:16;;;;;;;4.72;2.10;;;31.60;39.20;;;;;;5053246;28;45502;-71
2022/06/30 13:04:48;;;;;;;1.90;1.70;;;31.70;39.40;;;;;;5052339;28;45277;-71
2022/06/30 13:07:16;;;;;;;5.78;2.50;;;31.70;39.10;;;;;;5053732;28;46867;-71
2022/06/30 13:09:46;;;;;;;2.72;1.80;;;31.80;39.00;;;;;;5049727;28;45427;-71